Time;durP1;ratioP1;P1;durP2;ratioP2;P2;SDS_P1;SDS_P2;PMS_P1;PMS_P2;Temp;Humidity;BMP_temperature;BMP_pressure;BME280_temperature;BME280_humidity;BME280_pressure;Samples;Min_cycle;Max_cycle;Signal;HPM_P1;HPM_P2
2023/08/28 00:01:58;;;;;;;11.40;1.50;;;;;;;12.09;100.00;99749.56;5019464;28;20632;-66
2023/08/28 00:04:23;;;;;;;3.63;1.30;;;;;;;12.05;100.00;99758.41;5015067;28;20191;-66
2023/08/28 00:06:49;;;;;;;3.80;1.40;;;;;;;12.01;100.00;99766.47;5015159;28;20685;-66
2023/08/28 00:09:14;;;;;;;2.10;1.20;;;;;;;11.82;100.00;99765.06;5013443;28;20345;-65
2023/08/28 00:11:39;;;;;;;3.80;1.30;;;;;;;11.78;100.00;99753.28;5016729;28;20641;-65
2023/08/28 00:14:05;;;;;;;2.63;1.30;;;;;;;11.83;100.00;99758.16;5017166;28;20183;-65
2023/08/28 00:16:30;;;;;;;3.27;1.10;;;;;;;11.85;100.00;99757.13;5013191;28;20660;-65
2023/08/28 00:18:55;;;;;;;3.70;1.30;;;;;;;11.93;100.00;99752.31;5014354;28;20182;-65
2023/08/28 00:21:21;;;;;;;1.50;1.17;;;;;;;11.94;100.00;99751.38;5022590;28;20256;-65
2023/08/28 00:23:46;;;;;;;1.37;1.23;;;;;;;12.00;100.00;99749.34;5019734;28;20301;-65
2023/08/28 00:26:11;;;;;;;1.47;1.33;;;;;;;11.97;100.00;99736.66;5013929;28;20769;-65
2023/08/28 00:28:36;;;;;;;1.97;1.40;;;;;;;12.06;100.00;99736.88;5012910;28;20284;-66
2023/08/28 00:31:03;;;;;;;2.27;1.47;;;;;;;12.05;100.00;99727.47;5011806;28;20222;-66
2023/08/28 00:33:29;;;;;;;2.47;1.67;;;;;;;12.15;100.00;99721.72;5021809;28;20183;-65
2023/08/28 00:35:54;;;;;;;1.83;1.37;;;;;;;12.16;100.00;99713.88;5013797;28;20258;-66
2023/08/28 00:38:19;;;;;;;2.70;1.23;;;;;;;12.17;100.00;99714.69;5014202;28;20240;-65
2023/08/28 00:40:44;;;;;;;3.73;1.60;;;;;;;12.10;100.00;99717.69;5009775;28;20292;-65
2023/08/28 00:43:10;;;;;;;1.50;1.17;;;;;;;12.10;100.00;99712.53;5023843;28;20185;-65
2023/08/28 00:45:40;;;;;;;1.77;1.50;;;;;;;12.13;100.00;99701.22;5013507;28;20180;-66
2023/08/28 00:48:06;;;;;;;3.50;1.63;;;;;;;12.22;100.00;99698.00;5029312;28;20203;-65
2023/08/28 00:50:31;;;;;;;4.13;1.47;;;;;;;12.19;100.00;99694.78;5007855;28;20221;-65
2023/08/28 00:52:57;;;;;;;2.00;1.60;;;;;;;12.13;100.00;99693.47;5025212;28;20183;-64
2023/08/28 00:55:23;;;;;;;1.77;1.33;;;;;;;12.16;100.00;99684.72;5012141;28;20174;-64
2023/08/28 00:57:48;;;;;;;2.77;1.47;;;;;;;12.14;100.00;99671.09;5026851;28;20202;-65
2023/08/28 01:00:15;;;;;;;1.87;1.20;;;;;;;12.11;100.00;99674.69;5003769;28;20541;-65
2023/08/28 01:02:40;;;;;;;1.43;1.33;;;;;;;12.06;100.00;99676.75;5025416;28;20182;-64
2023/08/28 01:05:06;;;;;;;3.13;1.60;;;;;;;12.02;100.00;99673.56;5013638;28;20182;-65
2023/08/28 01:07:41;;;;;;;2.10;1.27;;;;;;;11.93;100.00;99679.28;5013462;28;20634;-65
2023/08/28 01:10:15;;;;;;;2.70;1.10;;;;;;;11.87;100.00;99680.53;5004481;28;20233;-65
2023/08/28 01:12:53;;;;;;;1.77;1.40;;;;;;;11.77;100.00;99682.06;5026967;28;20218;-64
2023/08/28 01:15:24;;;;;;;2.13;1.30;;;;;;;11.68;100.00;99674.97;5013104;28;20769;-64
2023/08/28 01:17:54;;;;;;;2.80;1.20;;;;;;;11.77;100.00;99664.03;5012060;28;20195;-64
2023/08/28 01:20:22;;;;;;;2.57;1.43;;;;;;;11.84;100.00;99665.28;5005698;28;20175;-64
2023/08/28 01:22:57;;;;;;;2.30;1.50;;;;;;;11.62;100.00;99673.59;5025870;28;20302;-64
2023/08/28 01:25:27;;;;;;;5.67;1.70;;;;;;;11.65;100.00;99680.28;5012469;28;20265;-64
2023/08/28 01:27:52;;;;;;;3.17;1.40;;;;;;;11.59;100.00;99686.69;5012635;28;20565;-64
2023/08/28 01:30:18;;;;;;;5.53;1.37;;;;;;;11.54;100.00;99699.06;5020793;28;20175;-65
2023/08/28 01:32:45;;;;;;;1.30;1.20;;;;;;;11.49;100.00;99701.09;5026678;28;20253;-65
2023/08/28 01:35:12;;;;;;;4.30;1.80;;;;;;;11.67;100.00;99704.22;5012518;28;20525;-65
2023/08/28 01:37:55;;;;;;;4.60;1.40;;;;;;;11.65;100.00;99700.91;5028136;28;20208;-65
2023/08/28 01:40:24;;;;;;;1.93;1.40;;;;;;;11.73;100.00;99706.41;4994221;28;20728;-65
2023/08/28 01:42:50;;;;;;;2.10;1.37;;;;;;;11.71;100.00;99710.81;5025471;28;20183;-65
2023/08/28 01:45:17;;;;;;;1.20;1.10;;;;;;;11.47;100.00;99729.50;5012680;28;20654;-64
2023/08/28 01:47:42;;;;;;;1.63;1.03;;;;;;;11.39;100.00;99750.63;5012676;28;20241;-64
2023/08/28 01:50:08;;;;;;;1.90;1.40;;;;;;;11.28;100.00;99753.03;5003747;28;20190;-64
2023/08/28 01:52:34;;;;;;;1.27;1.10;;;;;;;11.24;100.00;99754.16;5026909;28;20198;-64
2023/08/28 01:54:59;;;;;;;1.47;1.27;;;;;;;11.18;100.00;99746.84;5012845;28;20701;-64
2023/08/28 01:57:25;;;;;;;1.40;1.20;;;;;;;11.30;100.00;99744.28;5012768;28;20683;-65
2023/08/28 01:59:50;;;;;;;3.10;1.60;;;;;;;11.40;100.00;99739.41;5010678;28;20540;-65
2023/08/28 02:02:15;;;;;;;4.73;1.57;;;;;;;11.44;100.00;99743.41;5017817;28;20233;-64
2023/08/28 02:04:41;;;;;;;2.73;1.43;;;;;;;11.51;100.00;99732.72;5012141;28;20225;-65
2023/08/28 02:07:06;;;;;;;2.87;1.57;;;;;;;11.51;100.00;99733.56;5012265;28;20649;-65
2023/08/28 02:09:32;;;;;;;2.50;1.70;;;;;;;11.61;100.00;99724.31;5012706;28;20321;-65
2023/08/28 02:11:57;;;;;;;1.30;1.20;;;;;;;11.63;100.00;99730.19;5017114;28;20681;-64
2023/08/28 02:14:23;;;;;;;1.53;1.27;;;;;;;11.62;100.00;99735.44;5012749;28;20191;-65
2023/08/28 02:16:48;;;;;;;1.53;1.27;;;;;;;11.60;100.00;99738.09;5012393;28;20641;-65
2023/08/28 02:19:13;;;;;;;3.43;1.50;;;;;;;11.54;100.00;99753.16;5012439;28;20189;-64
2023/08/28 02:21:38;;;;;;;1.80;1.30;;;;;;;11.60;100.00;99758.72;5014089;28;20245;-65
2023/08/28 02:24:04;;;;;;;3.67;1.30;;;;;;;11.65;100.00;99752.44;5014982;28;20186;-64
2023/08/28 02:26:29;;;;;;;1.57;1.47;;;;;;;11.59;100.00;99738.22;5012337;28;20244;-65
2023/08/28 02:28:55;;;;;;;3.07;1.33;;;;;;;11.58;100.00;99744.28;5012460;28;20198;-64
2023/08/28 02:31:20;;;;;;;1.70;1.20;;;;;;;11.56;100.00;99739.25;5012031;28;20229;-64
2023/08/28 02:33:45;;;;;;;1.50;1.40;;;;;;;11.52;100.00;99742.09;5017352;28;20188;-65
2023/08/28 02:36:10;;;;;;;1.43;1.30;;;;;;;11.53;100.00;99743.75;5011624;28;20631;-66
2023/08/28 02:38:36;;;;;;;2.57;1.50;;;;;;;11.45;100.00;99750.22;5012023;28;20181;-64
2023/08/28 02:41:04;;;;;;;1.80;1.50;;;;;;;11.44;100.00;99742.59;5009766;28;20280;-65
2023/08/28 02:43:29;;;;;;;1.60;1.40;;;;;;;11.45;100.00;99750.22;5019620;28;20704;-65
2023/08/28 02:45:54;;;;;;;1.40;1.30;;;;;;;11.40;100.00;99743.69;5011453;28;20195;-65
2023/08/28 02:48:20;;;;;;;2.77;1.30;;;;;;;11.42;100.00;99740.13;5012052;28;20202;-65
2023/08/28 02:50:49;;;;;;;1.50;1.30;;;;;;;11.45;100.00;99733.97;5007731;28;20225;-65
2023/08/28 02:53:14;;;;;;;1.80;1.50;;;;;;;11.49;100.00;99737.97;5021535;28;20262;-65
2023/08/28 02:55:41;;;;;;;2.73;1.40;;;;;;;11.50;100.00;99731.06;5011434;28;20645;-65
2023/08/28 02:58:06;;;;;;;2.53;1.20;;;;;;;11.46;100.00;99733.00;5012119;28;20257;-65
2023/08/28 03:00:33;;;;;;;2.63;1.70;;;;;;;11.55;100.00;99729.03;5005817;28;20234;-64
2023/08/28 03:02:58;;;;;;;2.40;1.50;;;;;;;11.53;100.00;99723.97;5023265;28;20181;-65
2023/08/28 03:05:23;;;;;;;1.57;1.37;;;;;;;11.54;100.00;99717.09;5011289;28;20274;-64
2023/08/28 03:07:49;;;;;;;1.60;1.50;;;;;;;11.56;100.00;99703.19;5010447;28;20548;-66
2023/08/28 03:10:14;;;;;;;1.20;1.10;;;;;;;11.54;100.00;99701.63;5003408;28;20190;-66
2023/08/28 03:12:39;;;;;;;3.07;1.33;;;;;;;11.57;100.00;99699.69;5010220;28;20178;-66
2023/08/28 03:15:05;;;;;;;3.03;1.30;;;;;;;11.54;100.00;99706.78;5011098;28;20187;-65
2023/08/28 03:17:30;;;;;;;1.83;1.27;;;;;;;11.54;100.00;99694.72;5011850;28;20171;-65
2023/08/28 03:19:55;;;;;;;3.90;1.60;;;;;;;11.58;100.00;99701.31;5009819;28;20556;-65
2023/08/28 03:22:21;;;;;;;1.83;1.20;;;;;;;11.58;100.00;99697.91;5016799;28;20229;-64
2023/08/28 03:24:47;;;;;;;3.67;1.70;;;;;;;11.54;100.00;99697.28;5011295;28;20174;-66
2023/08/28 03:27:12;;;;;;;1.70;1.57;;;;;;;11.52;100.00;99691.41;5011347;28;20642;-64
2023/08/28 03:29:37;;;;;;;2.27;1.50;;;;;;;11.51;100.00;99686.34;5011159;28;20194;-65
2023/08/28 03:32:04;;;;;;;7.83;1.70;;;;;;;11.51;100.00;99694.09;4996375;28;20226;-64
2023/08/28 03:34:29;;;;;;;3.70;1.50;;;;;;;11.46;100.00;99682.34;5030501;28;20193;-65
2023/08/28 03:36:55;;;;;;;2.57;1.63;;;;;;;11.43;100.00;99673.97;5030845;28;20174;-64
2023/08/28 03:39:20;;;;;;;2.20;1.63;;;;;;;11.41;100.00;99665.53;5031225;28;20235;-65
2023/08/28 03:41:45;;;;;;;3.33;2.00;;;;;;;11.43;100.00;99663.69;5008310;28;20230;-65
2023/08/28 03:44:10;;;;;;;1.80;1.70;;;;;;;11.44;100.00;99661.00;5013109;28;20262;-65
2023/08/28 03:46:36;;;;;;;2.53;1.60;;;;;;;11.36;100.00;99665.00;5025629;28;20175;-65
2023/08/28 03:49:01;;;;;;;2.67;2.13;;;;;;;11.36;100.00;99663.28;5009745;28;20623;-64
2023/08/28 03:51:26;;;;;;;2.40;1.40;;;;;;;11.36;100.00;99663.28;5014506;28;20224;-64
2023/08/28 03:53:51;;;;;;;2.17;1.60;;;;;;;11.38;100.00;99658.00;5019013;28;20185;-64
2023/08/28 03:56:17;;;;;;;2.27;1.90;;;;;;;11.32;100.00;99660.97;5013937;28;20178;-64
2023/08/28 03:58:42;;;;;;;1.63;1.53;;;;;;;11.34;100.00;99654.81;5015002;28;20666;-64
2023/08/28 04:01:07;;;;;;;2.70;2.03;;;;;;;11.33;100.00;99657.50;5012547;28;20233;-64
2023/08/28 04:03:32;;;;;;;2.23;1.80;;;;;;;11.35;100.00;99641.00;5021659;28;20228;-64
2023/08/28 04:05:58;;;;;;;2.00;1.80;;;;;;;11.32;100.00;99642.97;5013674;28;20186;-64
2023/08/28 04:08:25;;;;;;;1.97;1.87;;;;;;;11.19;100.00;99643.75;5014903;28;20217;-64
2023/08/28 04:10:51;;;;;;;3.23;1.97;;;;;;;11.25;100.00;99639.94;5010703;28;20367;-64
2023/08/28 04:13:16;;;;;;;6.60;2.30;;;;;;;11.28;100.00;99637.19;5023371;28;20835;-64
2023/08/28 04:15:41;;;;;;;2.00;1.80;;;;;;;11.30;100.00;99637.91;5013723;28;20175;-64
2023/08/28 04:18:07;;;;;;;2.70;2.20;;;;;;;11.35;100.00;99630.72;5014146;28;20190;-64
2023/08/28 04:20:33;;;;;;;2.07;1.90;;;;;;;11.34;100.00;99636.78;5007852;28;20367;-64
2023/08/28 04:22:58;;;;;;;3.57;1.93;;;;;;;11.30;100.00;99630.19;5025720;28;20273;-65
2023/08/28 04:25:23;;;;;;;3.70;2.10;;;;;;;11.34;100.00;99631.63;5013557;28;20236;-64
2023/08/28 04:27:49;;;;;;;5.10;2.27;;;;;;;11.18;100.00;99631.00;5012577;28;20186;-64
2023/08/28 04:30:14;;;;;;;3.33;2.17;;;;;;;11.20;100.00;99642.00;5005172;28;20182;-65
2023/08/28 04:32:39;;;;;;;2.63;2.07;;;;;;;11.25;100.00;99634.78;5027623;28;20553;-64
2023/08/28 04:35:06;;;;;;;1.93;1.73;;;;;;;11.28;100.00;99637.19;5013360;28;20183;-64
2023/08/28 04:37:32;;;;;;;2.00;1.80;;;;;;;11.26;100.00;99650.16;5013985;28;20258;-65
2023/08/28 04:39:57;;;;;;;3.20;2.10;;;;;;;11.10;100.00;99663.19;5013455;28;20193;-65
2023/08/28 04:42:22;;;;;;;3.67;2.10;;;;;;;11.12;100.00;99660.50;5018828;28;20226;-65
2023/08/28 04:44:48;;;;;;;6.27;2.40;;;;;;;11.09;100.00;99661.53;5013140;28;20718;-63
2023/08/28 04:47:13;;;;;;;3.03;2.30;;;;;;;11.15;100.00;99665.47;5013472;28;20178;-64
2023/08/28 04:49:39;;;;;;;2.00;1.80;;;;;;;11.16;100.00;99666.28;5013172;28;20202;-64
2023/08/28 04:52:05;;;;;;;4.20;2.33;;;;;;;11.16;100.00;99679.16;5019050;28;20236;-63
2023/08/28 04:54:30;;;;;;;3.97;2.17;;;;;;;11.13;100.00;99683.56;5011740;28;20209;-64
2023/08/28 04:56:57;;;;;;;2.67;2.40;;;;;;;11.13;100.00;99687.91;5013600;28;20202;-64
2023/08/28 04:59:22;;;;;;;3.07;2.23;;;;;;;11.13;100.00;99695.63;5013382;28;20171;-64
2023/08/28 05:01:48;;;;;;;2.67;2.27;;;;;;;11.20;100.00;99701.19;5018868;28;20218;-64
2023/08/28 05:04:13;;;;;;;3.50;2.17;;;;;;;11.37;100.00;99700.94;5031321;28;20521;-64
2023/08/28 05:06:38;;;;;;;2.73;1.90;;;;;;;11.45;100.00;99690.97;5033587;28;20228;-64
2023/08/28 05:09:03;;;;;;;3.73;1.80;;;;;;;11.50;100.00;99689.84;5032983;28;20703;-64
2023/08/28 05:11:29;;;;;;;2.63;2.10;;;;;;;11.67;100.00;99686.19;5033310;28;20312;-65
2023/08/28 05:13:54;;;;;;;2.10;1.90;;;;;;;11.79;100.00;99690.53;5036542;28;20174;-65
2023/08/28 05:16:19;;;;;;;2.53;1.83;;;;;;;11.89;100.00;99681.25;5032751;28;20182;-65
2023/08/28 05:18:45;;;;;;;2.70;1.77;;;;;;;11.97;100.00;99679.94;5032867;28;20213;-65
2023/08/28 05:21:10;;;;;;;5.17;1.87;;;;;;;12.16;100.00;99682.94;5031373;28;20237;-65
2023/08/28 05:23:36;;;;;;;2.90;2.00;;;;;;;12.30;100.00;99669.09;5030857;28;20178;-65
2023/08/28 05:26:01;;;;;;;2.27;2.07;;;;;;;12.40;100.00;99674.44;5032590;28;20630;-66
2023/08/28 05:28:26;;;;;;;2.17;1.97;;;;;;;12.49;100.00;99673.81;5032348;28;20187;-65
2023/08/28 05:30:52;;;;;;;2.87;2.10;;;;;;;12.48;100.00;99676.50;5024725;28;20237;-64
2023/08/28 05:33:17;;;;;;;5.17;4.00;;;;;;;12.58;100.00;99672.38;5030421;28;20549;-64
2023/08/28 05:35:42;;;;;;;4.93;3.37;;;;;;;12.68;100.00;99677.69;5031955;28;20214;-65
2023/08/28 05:38:10;;;;;;;3.00;2.60;;;;;;;12.96;100.00;99674.00;5032905;28;20204;-65
2023/08/28 05:40:35;;;;;;;3.70;2.03;;;;;;;13.16;100.00;99666.56;5024327;28;20244;-65
2023/08/28 05:43:00;;;;;;;5.17;1.90;;;;;;;13.32;100.00;99664.53;5042955;28;20212;-65
2023/08/28 05:45:26;;;;;;;1.73;1.60;;;;;;;13.46;100.00;99670.44;5032452;28;20268;-65
2023/08/28 05:47:51;;;;;;;1.80;1.30;;;;;;;13.57;100.00;99667.94;5031951;28;20201;-65
2023/08/28 05:50:18;;;;;;;5.60;1.90;;;;;;;13.71;100.00;99661.72;5024243;28;20186;-65
2023/08/28 05:52:44;;;;;;;1.87;1.57;;;;;;;13.82;100.00;99661.72;5045808;28;20661;-66
2023/08/28 05:55:09;;;;;;;8.13;1.83;;;;;;;13.72;100.00;99666.75;5031958;28;20197;-65
2023/08/28 05:57:34;;;;;;;3.40;1.50;;;;;;;13.56;100.00;99667.09;5031760;28;20217;-63
2023/08/28 06:00:00;;;;;;;5.47;1.70;;;;;;;13.51;100.00;99676.94;5030646;28;20194;-66
2023/08/28 06:02:26;;;;;;;2.27;1.40;;;;;;;13.51;100.00;99676.13;5029476;28;20225;-66
2023/08/28 06:04:52;;;;;;;2.47;1.40;;;;;;;13.62;100.00;99672.72;5030890;28;20648;-65
2023/08/28 06:07:17;;;;;;;2.20;1.43;;;;;;;13.68;100.00;99678.28;5047555;28;20662;-66
2023/08/28 06:09:43;;;;;;;2.00;1.60;;;;;;;13.79;100.00;99671.47;5031681;28;20232;-65
2023/08/28 06:12:08;;;;;;;5.57;1.60;;;;;;;13.80;100.00;99671.34;5021841;28;20310;-66
2023/08/28 06:14:34;;;;;;;3.87;1.90;;;;;;;13.71;100.00;99667.69;5028970;28;20197;-64
2023/08/28 06:16:59;;;;;;;3.17;1.87;;;;;;;13.80;100.00;99679.13;5031220;28;20186;-66
2023/08/28 06:19:25;;;;;;;3.10;1.40;;;;;;;14.01;100.00;99671.50;5032301;28;20258;-68
2023/08/28 06:21:50;;;;;;;1.50;1.40;;;;;;;14.26;100.00;99671.41;5007267;28;20261;-68
2023/08/28 06:24:16;;;;;;;1.70;1.60;;;;;;;14.32;100.00;99676.91;5012249;28;20531;-67
2023/08/28 06:26:42;;;;;;;2.40;1.70;;;;;;;14.40;100.00;99685.84;5008965;28;20246;-67
2023/08/28 06:29:07;;;;;;;2.00;1.73;;;;;;;14.76;100.00;99683.97;5025316;28;20195;-70
2023/08/28 06:31:32;;;;;;;3.67;1.73;;;;;;;14.89;100.00;99679.47;5022035;28;20236;-66
2023/08/28 06:33:58;;;;;;;2.57;1.70;;;;;;;14.97;100.00;99684.03;5027343;28;20171;-66
2023/08/28 06:36:23;;;;;;;5.33;1.77;;;;;;;15.22;100.00;99692.41;5026225;28;20189;-65
2023/08/28 06:38:52;;;;;;;5.93;2.00;;;;;;;15.45;100.00;99690.56;5030353;28;20713;-66
2023/08/28 06:41:20;;;;;;;3.10;1.67;;;;;;;15.38;100.00;99694.59;5018151;28;20736;-65
2023/08/28 06:43:49;;;;;;;3.27;1.67;;;;;;;15.41;100.00;99694.34;5017523;28;20190;-67
2023/08/28 06:46:15;;;;;;;6.97;1.80;;;;;;;15.37;100.00;99692.94;5010666;28;20190;-72
2023/08/28 06:48:43;;;;;;;3.53;1.87;;;;;;;15.39;100.00;99694.47;5012174;28;20214;-64
2023/08/28 06:51:08;;;;;;;2.77;1.80;;;;;;;15.46;100.00;99687.03;5008182;28;20290;-64
2023/08/28 06:53:34;;;;;;;2.80;2.00;;;;;;;15.56;100.00;99687.91;5018935;28;20209;-63
2023/08/28 06:55:59;;;;;;;4.03;2.00;;;;;;;15.51;100.00;99695.25;5009775;28;20236;-65
2023/08/28 06:58:24;;;;;;;2.87;2.17;;;;;;;15.61;100.00;99700.50;5011746;28;20225;-66
2023/08/28 07:00:49;;;;;;;3.10;2.23;;;;;;;15.78;100.00;99706.91;5003466;28;20313;-65
2023/08/28 07:03:15;;;;;;;4.80;2.43;;;;;;;15.62;100.00;99694.38;4994448;28;20182;-65
2023/08/28 07:05:40;;;;;;;3.27;2.27;;;;;;;15.79;100.00;99698.16;5011250;28;20182;-64
2023/08/28 07:08:05;;;;;;;5.20;3.00;;;;;;;15.72;100.00;99695.25;5012167;28;20174;-63
2023/08/28 07:10:31;;;;;;;7.83;2.80;;;;;;;15.82;100.00;99698.75;5008235;28;20858;-64
2023/08/28 07:12:56;;;;;;;7.73;3.03;;;;;;;15.84;100.00;99692.63;5043544;28;20185;-63
2023/08/28 07:15:41;;;;;;;3.50;2.40;;;;;;;15.75;100.00;99692.41;5030592;28;20174;-64
2023/08/28 07:18:07;;;;;;;5.63;2.77;;;;;;;15.90;100.00;99685.16;5031269;28;20178;-65
2023/08/28 07:20:32;;;;;;;3.70;2.40;;;;;;;15.94;100.00;99680.53;5003097;28;20229;-63
2023/08/28 07:22:58;;;;;;;6.00;3.30;;;;;;;15.74;100.00;99680.41;5016405;28;20690;-63
2023/08/28 07:25:24;;;;;;;5.50;3.10;;;;;;;15.82;100.00;99675.41;5006837;28;20258;-65
2023/08/28 07:27:50;;;;;;;7.17;2.67;;;;;;;15.76;100.00;99673.28;5004490;28;20274;-64
2023/08/28 07:30:15;;;;;;;6.27;2.97;;;;;;;15.60;100.00;99665.16;4981138;28;20203;-64
2023/08/28 07:32:41;;;;;;;5.57;2.13;;;;;;;15.65;100.00;99657.81;5029005;28;20550;-63
2023/08/28 07:35:07;;;;;;;3.77;2.23;;;;;;;15.61;100.00;99648.66;5014400;28;20543;-63
2023/08/28 07:37:36;;;;;;;2.30;2.10;;;;;;;15.61;100.00;99646.06;5015240;28;20182;-64
2023/08/28 07:40:05;;;;;;;3.07;2.40;;;;;;;15.70;100.00;99665.22;5014535;28;20198;-64
2023/08/28 07:42:31;;;;;;;4.73;2.20;;;;;;;15.82;100.00;99657.25;5023802;28;20199;-65
2023/08/28 07:44:57;;;;;;;5.50;2.33;;;;;;;15.87;100.00;99663.84;5014490;28;20523;-64
2023/08/28 07:47:22;;;;;;;9.23;2.40;;;;;;;16.01;100.00;99655.69;5014936;28;20186;-64
2023/08/28 07:49:47;;;;;;;3.87;1.90;;;;;;;15.94;100.00;99657.19;5014609;28;20195;-66
2023/08/28 07:52:13;;;;;;;2.27;2.03;;;;;;;15.76;100.00;99662.91;5020189;28;20670;-65
2023/08/28 07:54:38;;;;;;;3.20;2.00;;;;;;;16.02;100.00;99667.72;5014174;28;20175;-64
2023/08/28 07:57:04;;;;;;;4.37;1.70;;;;;;;16.22;100.00;99662.63;5014397;28;20237;-65
2023/08/28 07:59:30;;;;;;;3.10;2.10;;;;;;;16.09;100.00;99653.28;5014987;28;20426;-64
2023/08/28 08:01:57;;;;;;;4.37;1.80;;;;;;;16.21;100.00;99654.03;5019144;28;20224;-65
2023/08/28 08:04:22;;;;;;;7.00;2.43;;;;;;;16.35;100.00;99650.25;5015014;28;20210;-64
2023/08/28 08:06:47;;;;;;;4.53;1.63;;;;;;;16.58;100.00;99642.22;5014474;28;20179;-64
2023/08/28 08:09:12;;;;;;;2.53;1.50;;;;;;;16.64;100.00;99640.88;5014697;28;20195;-65
2023/08/28 08:11:38;;;;;;;2.10;1.50;;;;;;;17.04;100.00;99638.22;5016837;28;20233;-65
2023/08/28 08:14:03;;;;;;;4.03;1.87;;;;;;;17.32;100.00;99651.34;5016725;28;20665;-64
2023/08/28 08:16:29;;;;;;;3.63;1.90;;;;;;;17.62;100.00;99651.28;5012893;28;20183;-65
2023/08/28 08:18:54;;;;;;;1.60;1.50;;;;;;;18.01;100.00;99653.78;5014796;28;20248;-66
2023/08/28 08:21:19;;;;;;;2.23;1.53;;;;;;;18.37;100.00;99656.53;5014194;28;20248;-65
2023/08/28 08:23:45;;;;;;;3.83;1.83;;;;;;;18.70;100.00;99662.09;5019575;28;20527;-65
2023/08/28 08:26:11;;;;;;;3.00;1.80;;;;;;;18.96;100.00;99659.59;5013613;28;20608;-65
2023/08/28 08:28:38;;;;;;;5.43;1.73;;;;;;;19.01;100.00;99659.16;5013956;28;20627;-64
2023/08/28 08:31:03;;;;;;;4.90;2.10;;;;;;;19.53;100.00;99658.41;5012061;28;20316;-65
2023/08/28 08:33:28;;;;;;;2.33;2.00;;;;;;;19.68;100.00;99658.69;5021803;28;20269;-64
2023/08/28 08:35:54;;;;;;;3.90;1.87;;;;;;;19.39;100.00;99657.19;5013181;28;20658;-65
2023/08/28 08:38:20;;;;;;;5.43;1.77;;;;;;;19.08;100.00;99659.41;5011865;28;20183;-65
2023/08/28 08:40:51;;;;;;;2.90;2.00;;;;;;;19.28;100.00;99649.59;5009283;28;20222;-69
2023/08/28 08:43:17;;;;;;;3.43;2.23;;;;;;;19.40;100.00;99651.00;5023477;28;20183;-73
2023/08/28 08:45:44;;;;;;;6.17;2.33;;;;;;;19.12;100.00;99650.28;5014358;28;20194;-70
2023/08/28 08:48:16;;;;;;;3.40;2.73;;;;;;;19.08;100.00;99647.16;5015137;28;20187;-70
2023/08/28 08:50:43;;;;;;;3.40;2.40;;;;;;;19.14;100.00;99641.34;5007696;28;20250;-73
2023/08/28 08:53:25;;;;;;;5.37;2.60;;;;;;;19.05;100.00;99641.44;5013898;28;20210;-73
2023/08/28 08:55:53;;;;;;;4.77;2.23;;;;;;;19.00;100.00;99641.88;5013108;28;20261;-72
2023/08/28 08:58:20;;;;;;;4.07;2.43;;;;;;;18.79;100.00;99650.78;5014069;28;20624;-73
2023/08/28 09:00:47;;;;;;;5.27;2.70;;;;;;;18.86;100.00;99649.22;5009395;28;20286;-71
2023/08/28 09:03:14;;;;;;;6.30;2.63;;;;;;;18.67;100.00;99651.97;5025026;28;20182;-71
2023/08/28 09:05:41;;;;;;;4.17;2.73;;;;;;;18.81;100.00;99656.66;5001718;28;20190;-71
2023/08/28 09:08:06;;;;;;;4.63;2.80;;;;;;;18.98;100.00;99662.06;5015062;28;20266;-68
2023/08/28 09:10:33;;;;;;;3.37;2.10;;;;;;;19.05;100.00;99664.88;5023301;28;20645;-70
2023/08/28 09:12:58;;;;;;;4.50;3.20;;;;;;;19.15;100.00;99671.66;5014347;28;20278;-71
2023/08/28 09:15:24;;;;;;;4.93;2.73;;;;;;;18.75;100.00;99665.06;5014354;28;20249;-70
2023/08/28 09:17:51;;;;;;;9.40;3.23;;;;;;;19.05;100.00;99670.91;5014728;28;20187;-73
2023/08/28 09:20:17;;;;;;;7.30;2.97;;;;;;;18.99;100.00;99672.34;5007268;28;20179;-72
2023/08/28 09:22:51;;;;;;;8.47;3.17;;;;;;;18.85;100.00;99683.22;5028460;28;20229;-70
2023/08/28 09:25:17;;;;;;;4.10;2.30;;;;;;;19.29;100.00;99682.53;5015256;28;20171;-69
2023/08/28 09:27:49;;;;;;;5.90;2.43;;;;;;;18.91;100.00;99687.88;5014786;28;20222;-69
2023/08/28 09:30:38;;;;;;;5.73;2.20;;;;;;;18.68;100.00;99695.25;5006282;28;20194;-72
2023/08/28 09:33:05;;;;;;;2.93;2.20;;;;;;;19.10;100.00;99701.75;5012971;28;20527;-72
2023/08/28 09:35:40;;;;;;;4.00;2.10;;;;;;;19.37;100.00;99694.81;5014192;28;20206;-64
2023/08/28 09:38:06;;;;;;;4.23;2.10;;;;;;;19.48;100.00;99690.16;5013392;28;20685;-72
2023/08/28 09:40:36;;;;;;;4.90;2.33;;;;;;;19.25;100.00;99692.44;5006605;28;20284;-70
2023/08/28 09:43:11;;;;;;;4.27;2.00;;;;;;;18.68;100.00;99706.53;4995426;28;20257;-70
2023/08/28 09:45:37;;;;;;;5.37;1.80;;;;;;;19.04;100.00;99703.19;5011451;28;20185;-65
2023/08/28 09:48:06;;;;;;;5.93;2.00;;;;;;;19.78;100.00;99702.94;5012806;28;20183;-65
2023/08/28 09:50:34;;;;;;;2.70;2.03;;;;;;;19.52;100.00;99701.13;5004740;28;20226;-65
2023/08/28 09:53:09;;;;;;;3.03;2.03;;;;;;;19.85;100.00;99706.59;5023896;28;20600;-66
2023/08/28 09:55:53;;;;;;;3.87;2.37;;;;;;;20.08;100.00;99708.69;5012411;28;20190;-66
2023/08/28 09:58:23;;;;;;;2.17;1.90;;;;;;;20.09;100.00;99708.53;5011995;28;20666;-64
2023/08/28 10:00:50;;;;;;;4.40;2.40;;;;;;;21.04;100.00;99707.56;5008619;28;20351;-65
2023/08/28 10:03:15;;;;;;;6.37;2.43;;;;;;;20.82;98.26;99721.25;5021740;28;20237;-66
2023/08/28 10:05:43;;;;;;;5.87;2.30;;;;;;;20.42;100.00;99719.13;5010790;28;20187;-66
2023/08/28 10:08:10;;;;;;;6.00;1.77;;;;;;;21.22;100.00;99704.81;5011946;28;20194;-66
2023/08/28 10:10:38;;;;;;;2.63;2.00;;;;;;;21.54;98.24;99704.97;5006669;28;20234;-67
2023/08/28 10:13:05;;;;;;;4.97;2.20;;;;;;;21.10;100.00;99706.13;5010644;28;20190;-66
2023/08/28 10:15:41;;;;;;;5.23;2.43;;;;;;;20.90;100.00;99711.63;5011624;28;20257;-66
2023/08/28 10:18:14;;;;;;;6.67;2.17;;;;;;;21.31;100.00;99705.66;5012508;28;20176;-65
2023/08/28 10:20:42;;;;;;;5.67;2.53;;;;;;;21.95;93.45;99710.16;5006806;28;20244;-65
2023/08/28 10:23:09;;;;;;;3.77;2.60;;;;;;;21.62;91.59;99707.63;5022178;28;20267;-64
2023/08/28 10:25:35;;;;;;;3.80;2.00;;;;;;;21.34;93.88;99705.31;5011797;28;20982;-64
2023/08/28 10:28:01;;;;;;;4.63;2.50;;;;;;;20.77;92.08;99700.81;5011642;28;20198;-65
2023/08/28 10:30:27;;;;;;;5.37;2.47;;;;;;;20.74;98.72;99703.75;5004444;28;20912;-64
2023/08/28 10:32:55;;;;;;;3.73;2.90;;;;;;;20.58;99.95;99699.28;5024143;28;20668;-64
2023/08/28 10:35:21;;;;;;;3.03;2.27;;;;;;;20.98;98.37;99689.09;5011397;28;20209;-64
2023/08/28 10:37:49;;;;;;;2.60;2.00;;;;;;;21.95;94.36;99686.59;5010802;28;20175;-65
2023/08/28 10:40:17;;;;;;;5.40;2.40;;;;;;;21.54;87.69;99682.22;5002044;28;20261;-64
2023/08/28 10:42:44;;;;;;;3.00;2.23;;;;;;;21.20;90.54;99670.16;5025250;28;20308;-64
2023/08/28 10:45:09;;;;;;;3.63;2.47;;;;;;;20.51;93.35;99670.34;5011493;28;20187;-64
2023/08/28 10:47:35;;;;;;;2.50;2.30;;;;;;;20.40;95.04;99670.63;5011893;28;20237;-64
2023/08/28 10:50:01;;;;;;;5.90;2.70;;;;;;;19.94;97.90;99676.97;5011533;28;20572;-66
2023/08/28 10:52:28;;;;;;;6.60;2.00;;;;;;;20.10;100.00;99672.81;5016748;28;20234;-65
2023/08/28 10:54:55;;;;;;;3.73;2.40;;;;;;;20.28;100.00;99659.66;5011459;28;20309;-65
2023/08/28 10:57:25;;;;;;;5.37;2.40;;;;;;;20.38;98.51;99655.13;5009547;28;20214;-64
2023/08/28 10:59:51;;;;;;;5.97;2.33;;;;;;;20.32;98.58;99658.38;5009557;28;20178;-65
2023/08/28 11:02:18;;;;;;;3.93;2.10;;;;;;;20.21;99.51;99656.84;5039440;28;20227;-65
2023/08/28 11:04:43;;;;;;;3.13;2.10;;;;;;;20.62;95.54;99636.06;5035316;28;20626;-64
2023/08/28 11:07:21;;;;;;;4.53;2.00;;;;;;;20.34;94.64;99651.19;5012867;28;20185;-65
2023/08/28 11:09:46;;;;;;;4.60;2.47;;;;;;;20.72;93.19;99653.44;5034997;28;20387;-65
2023/08/28 11:12:11;;;;;;;3.30;2.37;;;;;;;20.28;95.54;99650.03;5022671;28;20280;-65
2023/08/28 11:14:55;;;;;;;3.80;1.60;;;;;;;20.15;96.73;99640.00;5011776;28;20186;-65
2023/08/28 11:17:22;;;;;;;4.70;1.87;;;;;;;19.88;96.40;99643.66;5013439;28;20187;-65
2023/08/28 11:19:56;;;;;;;2.33;1.60;;;;;;;19.78;92.25;99640.31;5009363;28;20194;-66
2023/08/28 11:22:31;;;;;;;2.70;1.63;;;;;;;19.44;96.49;99635.88;5016485;28;20317;-65
2023/08/28 11:24:58;;;;;;;1.63;1.33;;;;;;;19.82;96.12;99632.03;5015210;28;20170;-65